Hauptseite
METAR-TAF:

METAR-TAF

Flughäfen :

Flughafen Sønderborg

Sønderborg, Dänemark

Breite: 54-58N, Länge: 009-47E, Höhe: 7 m

Beobachtung

Neuester Wetterbericht von vor 31 Minuten, um 03:50 UTC
Wind 18 kt aus Ost
Temperatur 6°C
Luftfeuchtigkeit 81%
Luftdruck 1021 hPa
Sichtweite 10 km oder mehr

METAR: EKSB 210350Z AUTO 10018KT 9999NDV BKN019/// 06/03 Q1021

Zeit: 05:21 (04:21 UTC)

Prognose

Neuester Wetterbericht von vor 11 Stunden und 0 Minuten, um 17:21 UTC
Gültige Prognose vom 20 um 18 UTC bis 20 um 23 UTC
Wind 25 kt aus Ost
Sichtweite 10 km oder mehr
Durchbrochene Bewölkung in der Höhe von 2000 ft
Zeitweise
vom 20 um 18 UTC bis 20 um 21 UTC
Wind 30 kt aus Ost, Böen bis zu 40 kt

TAF: EKSB 201721Z 2018/2023 10025KT 9999 BKN020 TEMPO 2018/2021 10030G40KT

Wetterbeobachtungen und Prognosen von mehr als 4000 Flughäfen (METAR und TAF Bericht).

Die verfügbaren Stationen werden durch gelbe und rote Markierungen auf der Karte dargestellt.

Führen Sie die Maus auf sie, um den Namen der Station zu sehen.

Darauf klicken, um die Beobachtung von Wetterbeobachtungen und Prognosen zu sehen.

Um die Karte zu ändern : klicken Sie auf den grünen Tasten mit einem schwarzen Kreuz Zum Vergrößern, auf den grünen Button mit einem Gedankenstrich zu verkleinern, oder auf die grünen Pfeile für benachbarte Karten.


METAR-TAF: